Time;durP1;ratioP1;P1;durP2;ratioP2;P2;SDS_P1;SDS_P2;PMS_P1;PMS_P2;Temp;Humidity;BMP_temperature;BMP_pressure;BME280_temperature;BME280_humidity;BME280_pressure;Samples;Min_cycle;Max_cycle;Signal;HPM_P1;HPM_P2
2022/08/05 00:01:39;;;;;;;7.85;2.90;;;;;;;26.11;58.04;98170.81;5063882;28;20307;-68
2022/08/05 00:04:04;;;;;;;11.75;3.00;;;;;;;26.14;58.05;98170.53;5063795;28;20020;-68
2022/08/05 00:06:30;;;;;;;15.43;3.10;;;;;;;26.01;58.46;98164.53;5063850;28;20051;-68
2022/08/05 00:08:55;;;;;;;11.15;3.25;;;;;;;25.93;59.29;98150.84;5063728;28;20243;-68
2022/08/05 00:11:21;;;;;;;7.03;2.90;;;;;;;25.84;59.68;98130.09;5063769;28;20031;-68
2022/08/05 00:13:46;;;;;;;12.93;3.08;;;;;;;25.76;59.89;98132.59;5063733;28;20082;-68
2022/08/05 00:16:13;;;;;;;9.45;3.28;;;;;;;25.76;59.65;98128.09;5063774;28;20017;-68
2022/08/05 00:18:44;;;;;;;7.30;3.03;;;;;;;25.76;60.24;98108.34;5063887;28;20204;-68
2022/08/05 00:21:10;;;;;;;10.57;3.47;;;;;;;25.73;59.98;98095.13;5063728;28;20021;-68
2022/08/05 00:23:37;;;;;;;17.38;3.00;;;;;;;25.70;60.12;98081.94;5063662;28;20364;-68
2022/08/05 00:26:02;;;;;;;6.07;3.03;;;;;;;25.65;60.06;98065.31;5063612;28;20066;-68
2022/08/05 00:28:28;;;;;;;7.65;2.92;;;;;;;25.71;59.56;98033.28;5063340;28;20041;-68
2022/08/05 00:30:53;;;;;;;7.47;2.72;;;;;;;25.68;59.59;98027.28;5063593;28;20020;-68
2022/08/05 00:33:18;;;;;;;9.02;3.45;;;;;;;25.64;59.93;98031.25;5063479;28;20028;-68
2022/08/05 00:35:44;;;;;;;8.90;3.20;;;;;;;25.61;59.93;98036.91;5063520;28;20031;-68
2022/08/05 00:38:09;;;;;;;15.38;2.97;;;;;;;25.55;60.24;98042.84;5063494;28;20032;-68
2022/08/05 00:40:45;;;;;;;12.13;2.70;;;;;;;25.49;60.51;98048.78;5058170;28;20025;-68
2022/08/05 00:43:11;;;;;;;14.32;2.92;;;;;;;25.44;60.61;98051.91;5056170;28;20028;-68
2022/08/05 00:45:36;;;;;;;4.93;2.67;;;;;;;25.38;61.37;98071.31;5044763;28;20022;-68
2022/08/05 00:48:02;;;;;;;11.00;2.90;;;;;;;25.35;61.71;98111.13;5043463;28;20041;-68
2022/08/05 00:50:27;;;;;;;11.20;3.03;;;;;;;25.31;61.78;98105.13;5043412;28;20380;-68
2022/08/05 00:52:53;;;;;;;8.52;2.78;;;;;;;25.23;62.69;98097.72;5046500;28;20025;-68
2022/08/05 00:55:18;;;;;;;9.02;3.45;;;;;;;25.08;63.45;98084.69;5047027;28;20022;-68
2022/08/05 00:57:43;;;;;;;14.52;3.00;;;;;;;24.88;64.19;98075.66;5047071;28;20067;-68
2022/08/05 01:00:09;;;;;;;8.48;2.63;;;;;;;24.81;64.22;98066.38;5047177;28;20021;-68
2022/08/05 01:02:35;;;;;;;5.43;2.55;;;;;;;24.79;64.13;98065.69;5046934;28;20033;-68
2022/08/05 01:05:01;;;;;;;9.07;3.45;;;;;;;24.80;63.90;98051.22;5047073;28;20021;-68
2022/08/05 01:07:26;;;;;;;11.27;3.22;;;;;;;24.74;64.55;98046.38;5046819;28;20028;-68
2022/08/05 01:09:51;;;;;;;11.98;3.40;;;;;;;24.79;63.83;98054.06;5047097;28;20336;-68
2022/08/05 01:12:20;;;;;;;10.88;3.15;;;;;;;24.82;64.09;98078.88;5046825;28;20085;-68
2022/08/05 01:14:57;;;;;;;8.23;2.97;;;;;;;24.84;63.88;98108.38;5046709;28;20394;-68
2022/08/05 01:17:30;;;;;;;7.03;2.60;;;;;;;24.89;63.46;98131.22;5046953;28;20324;-68
2022/08/05 01:20:20;;;;;;;15.20;3.75;;;;;;;24.73;70.39;98152.34;5046579;28;20053;-68
2022/08/05 01:23:03;;;;;;;36.35;4.70;;;;;;;24.39;73.92;98150.69;5046546;28;20088;-68
2022/08/05 01:25:42;;;;;;;56.40;5.22;;;;;;;24.15;77.37;98152.72;5046539;28;20017;-68
2022/08/05 01:28:08;;;;;;;26.15;4.10;;;;;;;23.87;79.78;98145.16;5046225;28;20075;-68
2022/08/05 01:30:36;;;;;;;10.98;3.88;;;;;;;23.49;81.89;98123.16;5046460;28;20025;-68
2022/08/05 01:33:06;;;;;;;19.95;3.97;;;;;;;23.20;83.38;98121.88;5046312;28;20048;-68
2022/08/05 01:35:34;;;;;;;15.23;4.53;;;;;;;23.14;82.96;98106.25;5046418;28;20033;-68
2022/08/05 01:38:03;;;;;;;11.48;3.90;;;;;;;22.95;84.96;98095.22;5046314;28;20020;-68
2022/08/05 01:40:30;;;;;;;11.60;3.70;;;;;;;22.94;84.90;98093.53;5052173;28;20031;-68
2022/08/05 01:42:59;;;;;;;12.05;3.65;;;;;;;22.85;85.17;98091.56;5058427;28;20024;-68
2022/08/05 01:45:28;;;;;;;27.17;4.82;;;;;;;22.73;86.49;98095.16;5050048;28;20213;-68
2022/08/05 01:47:54;;;;;;;6.63;3.50;;;;;;;22.62;87.14;98092.47;5046144;28;20225;-68
2022/08/05 01:50:25;;;;;;;14.27;3.72;;;;;;;22.51;87.40;98089.72;5046065;28;20092;-68
2022/08/05 01:52:54;;;;;;;12.00;3.88;;;;;;;22.35;88.32;98078.41;5046323;28;20244;-68
2022/08/05 01:55:22;;;;;;;14.77;3.65;;;;;;;22.34;88.32;98090.13;5045928;28;20026;-68
2022/08/05 01:57:51;;;;;;;13.60;3.47;;;;;;;22.34;88.59;98082.06;5046171;28;20025;-68
2022/08/05 02:00:17;;;;;;;13.63;3.88;;;;;;;22.13;89.85;98083.66;5045911;28;20220;-68
2022/08/05 02:02:51;;;;;;;11.70;3.58;;;;;;;22.07;89.88;98078.75;5045602;28;20309;-68
2022/08/05 02:05:19;;;;;;;10.02;3.70;;;;;;;22.11;87.05;98091.00;5046072;28;20019;-68
2022/08/05 02:07:44;;;;;;;8.73;3.50;;;;;;;22.15;87.21;98095.97;5046028;28;20312;-68
2022/08/05 02:10:10;;;;;;;17.38;3.65;;;;;;;21.98;90.67;98080.31;5045970;28;20024;-68
2022/08/05 02:12:53;;;;;;;12.20;3.80;;;;;;;22.00;91.53;98073.00;5045755;28;20052;-68
2022/08/05 02:15:26;;;;;;;12.73;4.30;;;;;;;21.91;92.64;98072.81;5045581;28;20021;-68
2022/08/05 02:18:02;;;;;;;15.77;4.45;;;;;;;21.87;92.13;98074.03;5045581;28;20029;-68
2022/08/05 02:20:33;;;;;;;12.45;3.55;;;;;;;21.91;90.33;98083.53;5045499;28;20340;-68
2022/08/05 02:23:01;;;;;;;10.68;3.90;;;;;;;21.86;93.56;98104.47;5045490;28;20021;-68
2022/08/05 02:25:32;;;;;;;12.57;4.00;;;;;;;21.88;94.09;98118.59;5045445;28;20017;-68
2022/08/05 02:28:00;;;;;;;7.20;4.10;;;;;;;21.87;93.13;98114.22;5045226;28;20048;-68
2022/08/05 02:30:31;;;;;;;10.32;3.92;;;;;;;21.86;93.31;98125.91;5045508;28;20025;-68
2022/08/05 02:32:58;;;;;;;7.40;3.60;;;;;;;21.90;92.14;98138.13;5045328;28;20025;-68
2022/08/05 02:35:26;;;;;;;12.52;4.13;;;;;;;21.89;92.66;98171.25;5045122;28;20022;-68
2022/08/05 02:37:55;;;;;;;8.80;4.00;;;;;;;21.92;91.56;98185.25;5045450;28;20021;-68
2022/08/05 02:40:23;;;;;;;8.82;3.80;;;;;;;21.96;91.95;98210.03;5049161;28;20021;-68
2022/08/05 02:42:49;;;;;;;6.32;3.30;;;;;;;21.85;91.35;98201.88;5055512;28;20024;-68
2022/08/05 02:45:16;;;;;;;7.93;3.65;;;;;;;22.04;89.28;98219.22;5054638;28;20359;-68
2022/08/05 02:47:42;;;;;;;5.90;3.05;;;;;;;21.84;91.14;98192.13;5045078;28;20063;-68
2022/08/05 02:50:08;;;;;;;13.93;3.70;;;;;;;21.85;91.20;98239.38;5044980;28;20136;-68
2022/08/05 02:52:35;;;;;;;6.05;3.40;;;;;;;21.77;90.46;98215.81;5044898;28;20028;-68
2022/08/05 02:55:01;;;;;;;6.25;3.88;;;;;;;21.65;91.39;98197.06;5045241;28;20360;-68
2022/08/05 02:57:27;;;;;;;12.43;4.07;;;;;;;21.64;92.19;98198.03;5044793;28;20025;-68
2022/08/05 02:59:53;;;;;;;10.25;3.85;;;;;;;21.66;90.67;98206.78;5044734;28;20032;-68
2022/08/05 03:02:23;;;;;;;9.68;3.28;;;;;;;21.70;89.30;98211.81;5044738;28;20025;-68
2022/08/05 03:04:50;;;;;;;6.63;3.67;;;;;;;21.66;90.53;98212.16;5044656;28;20021;-68
2022/08/05 03:07:17;;;;;;;5.22;3.17;;;;;;;21.58;91.10;98219.88;5044687;28;20321;-68
2022/08/05 03:09:44;;;;;;;5.72;3.33;;;;;;;21.53;89.78;98211.31;5044620;28;20021;-68
2022/08/05 03:12:41;;;;;;;5.05;3.40;;;;;;;21.33;89.79;98213.53;5044643;28;20021;-68
2022/08/05 03:15:09;;;;;;;7.82;3.30;;;;;;;21.25;89.33;98228.41;5044165;28;20329;-68
2022/08/05 03:17:35;;;;;;;7.72;3.38;;;;;;;21.14;90.05;98244.38;5044739;28;20032;-68
2022/08/05 03:20:00;;;;;;;8.13;3.38;;;;;;;20.97;90.44;98256.19;5044423;28;20025;-68
2022/08/05 03:22:26;;;;;;;6.07;3.53;;;;;;;20.79;91.16;98268.06;5044399;28;20030;-68
2022/08/05 03:24:52;;;;;;;12.27;3.65;;;;;;;20.74;91.84;98286.25;5044378;28;20021;-68
2022/08/05 03:27:19;;;;;;;9.80;3.50;;;;;;;20.67;91.67;98282.28;5044231;28;20191;-68
2022/08/05 03:29:45;;;;;;;10.95;3.70;;;;;;;20.70;91.60;98297.25;5044097;28;20049;-68
2022/08/05 03:32:11;;;;;;;6.30;3.53;;;;;;;20.73;90.95;98284.53;5044233;28;20045;-68
2022/08/05 03:34:37;;;;;;;9.20;2.95;;;;;;;20.70;91.06;98290.09;5044199;28;20060;-68
2022/08/05 03:37:04;;;;;;;6.53;3.15;;;;;;;20.68;91.07;98284.00;5044737;28;20021;-68
2022/08/05 03:39:29;;;;;;;8.82;3.25;;;;;;;20.66;90.81;98285.88;5043981;28;20135;-68
2022/08/05 03:41:56;;;;;;;4.88;3.40;;;;;;;20.67;90.73;98287.63;5051363;28;20232;-68
2022/08/05 03:44:21;;;;;;;7.38;3.17;;;;;;;20.64;91.00;98290.50;5057121;28;20088;-68
2022/08/05 03:46:47;;;;;;;5.72;3.05;;;;;;;20.62;91.04;98294.22;5044050;28;20339;-68
2022/08/05 03:49:12;;;;;;;8.70;3.28;;;;;;;20.70;90.23;98311.50;5044003;28;20044;-68
2022/08/05 03:51:42;;;;;;;5.68;2.97;;;;;;;20.61;90.78;98322.78;5043994;28;20021;-68
2022/08/05 03:54:22;;;;;;;7.90;3.88;;;;;;;20.48;91.64;98335.22;5043967;28;20049;-68
2022/08/05 03:56:48;;;;;;;8.55;3.28;;;;;;;20.39;92.16;98335.81;5043924;28;20063;-68
2022/08/05 03:59:18;;;;;;;7.15;3.47;;;;;;;20.25;92.85;98325.09;5043917;28;20221;-68
2022/08/05 04:01:46;;;;;;;8.73;3.90;;;;;;;20.20;93.36;98321.00;5043896;28;20206;-68
2022/08/05 04:04:14;;;;;;;10.32;3.47;;;;;;;20.15;93.93;98323.97;5043937;28;20044;-68
2022/08/05 04:06:40;;;;;;;7.72;3.50;;;;;;;20.01;94.80;98326.63;5043896;28;20067;-68
2022/08/05 04:09:07;;;;;;;7.03;3.95;;;;;;;19.95;96.22;98332.34;5043944;28;20026;-68
2022/08/05 04:11:33;;;;;;;11.48;3.63;;;;;;;20.03;95.65;98340.72;5043798;28;20321;-68
2022/08/05 04:13:59;;;;;;;7.78;3.60;;;;;;;20.02;95.53;98344.38;5043677;28;20032;-68
2022/08/05 04:16:25;;;;;;;9.15;3.53;;;;;;;20.03;95.41;98359.44;5043747;28;20048;-68
2022/08/05 04:18:52;;;;;;;7.07;3.58;;;;;;;20.11;95.33;98354.50;5043751;28;20313;-68
2022/08/05 04:21:17;;;;;;;6.05;3.70;;;;;;;20.19;95.01;98356.72;5043725;28;20071;-68
2022/08/05 04:23:42;;;;;;;5.78;3.30;;;;;;;20.19;94.82;98352.22;5043698;28;20025;-68
2022/08/05 04:26:08;;;;;;;5.82;4.00;;;;;;;20.17;95.30;98332.75;5044171;28;20088;-68
2022/08/05 04:28:33;;;;;;;10.30;3.80;;;;;;;20.27;94.23;98296.47;5047399;28;20049;-68
2022/08/05 04:30:59;;;;;;;9.75;3.70;;;;;;;20.47;93.02;98314.78;5047595;28;20041;-68
2022/08/05 04:33:25;;;;;;;6.35;3.78;;;;;;;20.61;92.91;98298.72;5047711;28;20017;-68
2022/08/05 04:35:50;;;;;;;7.82;3.83;;;;;;;20.73;92.38;98315.78;5058095;28;20025;-68
2022/08/05 04:38:16;;;;;;;11.05;3.80;;;;;;;20.87;91.90;98308.56;5067434;28;20027;-68
2022/08/05 04:40:41;;;;;;;8.00;3.67;;;;;;;21.00;91.74;98296.13;5067412;28;20312;-68
2022/08/05 04:43:07;;;;;;;7.22;3.80;;;;;;;21.05;91.56;98307.41;5067311;28;20021;-68
2022/08/05 04:45:33;;;;;;;9.10;4.15;;;;;;;21.19;93.36;98312.69;5067296;28;20024;-68
2022/08/05 04:48:10;;;;;;;8.57;3.60;;;;;;;21.24;93.08;98312.38;5067246;28;20378;-68
2022/08/05 04:50:44;;;;;;;6.38;3.42;;;;;;;21.19;92.24;98301.97;5067187;28;20020;-68
2022/08/05 04:53:11;;;;;;;9.07;4.00;;;;;;;21.08;92.59;98301.81;5067417;28;20017;-68
2022/08/05 04:55:38;;;;;;;8.18;3.60;;;;;;;20.99;94.12;98298.91;5067103;28;20017;-68
2022/08/05 04:58:05;;;;;;;7.18;3.38;;;;;;;21.06;94.23;98309.09;5067049;28;20194;-68
2022/08/05 05:00:32;;;;;;;6.75;3.80;;;;;;;21.21;93.29;98307.22;5067310;28;20021;-68
2022/08/05 05:02:57;;;;;;;6.20;3.65;;;;;;;21.15;93.62;98304.97;5066951;28;20244;-68
2022/08/05 05:05:22;;;;;;;7.15;3.60;;;;;;;21.22;92.92;98309.81;5066981;28;20021;-68
2022/08/05 05:07:48;;;;;;;9.07;3.92;;;;;;;21.28;92.46;98314.75;5066895;28;20025;-68
2022/08/05 05:10:13;;;;;;;6.47;3.35;;;;;;;21.35;92.18;98314.34;5066811;28;20050;-68
2022/08/05 05:12:39;;;;;;;7.75;3.67;;;;;;;21.65;92.55;98317.59;5066844;28;20087;-68
2022/08/05 05:15:05;;;;;;;8.07;3.80;;;;;;;22.70;87.51;98316.28;5066677;28;20044;-68
2022/08/05 05:17:42;;;;;;;10.95;3.40;;;;;;;23.28;83.24;98315.53;5066692;28;20024;-68
2022/08/05 05:20:09;;;;;;;10.85;3.50;;;;;;;22.72;84.46;98308.13;5066705;28;20075;-68
2022/08/05 05:22:34;;;;;;;8.35;3.70;;;;;;;23.09;84.42;98321.38;5066574;28;20092;-68
2022/08/05 05:25:00;;;;;;;8.15;3.50;;;;;;;23.87;82.19;98327.94;5066562;28;20063;-68
2022/08/05 05:27:27;;;;;;;7.80;3.45;;;;;;;23.50;83.85;98318.28;5066297;28;20021;-68
2022/08/05 05:29:52;;;;;;;7.45;3.40;;;;;;;23.19;84.16;98302.75;5066501;28;20053;-68
2022/08/05 05:32:18;;;;;;;15.75;3.63;;;;;;;22.97;84.81;98316.09;5066461;28;20021;-68
2022/08/05 05:34:43;;;;;;;9.98;3.97;;;;;;;23.29;84.51;98314.56;5066305;28;20111;-68
2022/08/05 05:37:10;;;;;;;6.20;3.92;;;;;;;24.51;79.92;98319.22;5066186;28;20312;-68
2022/08/05 05:39:36;;;;;;;8.63;3.17;;;;;;;25.62;75.87;98321.69;5065261;28;20017;-68
2022/08/05 05:42:01;;;;;;;6.93;3.33;;;;;;;26.15;73.17;98317.94;5066284;28;20098;-68
2022/08/05 05:44:27;;;;;;;9.60;3.47;;;;;;;26.68;69.61;98324.88;5066211;28;20021;-68
2022/08/05 05:46:52;;;;;;;7.35;3.38;;;;;;;26.53;68.88;98339.69;5066220;28;20025;-68
2022/08/05 05:49:17;;;;;;;9.20;3.33;;;;;;;25.42;73.92;98339.50;5066123;28;20020;-68
2022/08/05 05:51:42;;;;;;;9.52;4.00;;;;;;;24.75;74.97;98328.03;5066167;28;20020;-68
2022/08/05 05:54:08;;;;;;;10.02;3.95;;;;;;;24.24;80.19;98326.81;5065950;28;20017;-68
2022/08/05 05:56:33;;;;;;;9.90;3.90;;;;;;;23.90;82.22;98338.44;5065991;28;20025;-68
2022/08/05 05:59:02;;;;;;;8.93;3.92;;;;;;;23.63;85.47;98362.06;5065954;28;20028;-68
2022/08/05 06:01:28;;;;;;;8.57;3.97;;;;;;;23.30;84.88;98370.00;5066135;28;20023;-68
2022/08/05 06:03:53;;;;;;;7.97;3.70;;;;;;;23.04;83.67;98377.25;5065885;28;20321;-68
2022/08/05 06:06:18;;;;;;;6.70;3.22;;;;;;;22.73;86.70;98375.09;5065855;28;20304;-68
2022/08/05 06:08:44;;;;;;;8.00;4.03;;;;;;;22.46;87.50;98362.78;5065943;28;20020;-68
2022/08/05 06:11:09;;;;;;;7.65;4.00;;;;;;;22.33;88.77;98364.59;5065692;28;20025;-68
2022/08/05 06:13:34;;;;;;;6.65;3.72;;;;;;;22.14;91.10;98382.94;5065604;28;20293;-68
2022/08/05 06:16:00;;;;;;;5.88;3.72;;;;;;;22.06;92.51;98387.97;5065629;28;20021;-68
2022/08/05 06:18:25;;;;;;;8.68;4.10;;;;;;;21.92;92.09;98398.81;5065564;28;20021;-68
2022/08/05 06:20:50;;;;;;;11.73;4.53;;;;;;;21.80;93.34;98407.69;5064383;28;20021;-68
2022/08/05 06:23:16;;;;;;;13.73;4.90;;;;;;;21.57;94.73;98394.94;5065462;28;20020;-68
2022/08/05 06:25:41;;;;;;;16.00;5.47;;;;;;;21.46;97.82;98408.19;5065434;28;20055;-68
2022/08/05 06:28:06;;;;;;;19.55;5.78;;;;;;;21.40;98.21;98424.66;5065193;28;20045;-68
2022/08/05 06:30:32;;;;;;;14.55;4.93;;;;;;;21.30;98.95;98419.91;5065335;28;20320;-68
2022/08/05 06:32:57;;;;;;;13.93;4.95;;;;;;;21.21;98.03;98431.22;5065271;28;20021;-68
2022/08/05 06:35:23;;;;;;;13.32;4.88;;;;;;;21.16;98.51;98422.63;5065375;28;20082;-68
2022/08/05 06:37:48;;;;;;;10.82;4.93;;;;;;;21.15;99.00;98436.97;5065225;28;20252;-68
2022/08/05 06:40:14;;;;;;;9.63;4.65;;;;;;;21.11;99.63;98430.09;5065131;28;20042;-68
2022/08/05 06:42:39;;;;;;;11.10;4.90;;;;;;;21.13;99.56;98413.94;5065355;28;20190;-68
2022/08/05 06:45:06;;;;;;;13.13;4.40;;;;;;;21.04;98.05;98412.72;5065013;28;20021;-68
2022/08/05 06:47:31;;;;;;;9.10;4.75;;;;;;;21.18;98.17;98401.13;5065006;28;20028;-68
2022/08/05 06:49:56;;;;;;;10.90;4.97;;;;;;;21.03;98.66;98400.28;5064711;28;20120;-68
2022/08/05 06:52:22;;;;;;;9.35;4.72;;;;;;;21.09;100.00;98410.59;5065143;28;20031;-68
2022/08/05 06:54:47;;;;;;;11.65;5.25;;;;;;;21.04;100.00;98409.19;5064795;28;20029;-68
2022/08/05 06:57:14;;;;;;;9.43;5.07;;;;;;;21.16;100.00;98387.84;5064814;28;20032;-68
2022/08/05 06:59:40;;;;;;;10.43;5.35;;;;;;;21.12;100.00;98394.34;5064714;28;20030;-68
2022/08/05 07:02:06;;;;;;;9.73;4.20;;;;;;;21.12;100.00;98405.06;5064696;28;20108;-68
2022/08/05 07:04:31;;;;;;;9.32;4.97;;;;;;;21.09;100.00;98426.66;5064700;28;20021;-68
2022/08/05 07:06:56;;;;;;;7.25;4.45;;;;;;;21.01;100.00;98442.34;5064659;28;20028;-68
2022/08/05 07:09:22;;;;;;;9.77;4.53;;;;;;;20.99;99.93;98444.28;5064613;28;20127;-68
2022/08/05 07:11:47;;;;;;;10.73;4.85;;;;;;;21.02;100.00;98425.34;5064549;28;20312;-68
2022/08/05 07:17:00;;;;;;;10.15;4.57;;;;;;;21.02;99.87;98441.41;5064453;28;20139;-68
2022/08/05 07:19:26;;;;;;;9.82;4.60;;;;;;;21.00;100.00;98448.66;5064417;28;20063;-68
2022/08/05 07:21:52;;;;;;;5.95;3.90;;;;;;;20.93;98.96;98452.66;5064385;28;20025;-68
2022/08/05 07:24:17;;;;;;;10.50;4.20;;;;;;;20.92;98.35;98445.56;5064374;28;20066;-68
2022/08/05 07:26:43;;;;;;;6.93;3.85;;;;;;;20.88;99.69;98454.75;5064575;28;20036;-68
2022/08/05 07:29:09;;;;;;;9.57;4.45;;;;;;;20.85;100.00;98438.91;5064001;28;20045;-68
2022/08/05 07:31:34;;;;;;;14.00;4.80;;;;;;;20.82;100.00;98401.63;5064213;28;20036;-68
2022/08/05 07:34:00;;;;;;;7.78;4.57;;;;;;;20.64;100.00;98418.88;5064136;28;20021;-68
2022/08/05 07:36:26;;;;;;;10.50;4.55;;;;;;;20.63;100.00;98419.81;5064411;28;20330;-68
2022/08/05 07:38:51;;;;;;;9.75;5.22;;;;;;;20.57;100.00;98401.47;5064412;28;20020;-68
2022/08/05 07:41:20;;;;;;;10.65;4.53;;;;;;;20.50;100.00;98368.06;5064117;28;20066;-68
2022/08/05 07:43:46;;;;;;;8.82;4.68;;;;;;;20.46;100.00;98376.38;5063970;28;20017;-68
2022/08/05 07:46:11;;;;;;;8.45;4.82;;;;;;;20.36;100.00;98370.75;5064110;28;20228;-68
2022/08/05 07:48:37;;;;;;;11.45;4.38;;;;;;;20.26;100.00;98382.97;5064012;28;20025;-68
2022/08/05 07:51:02;;;;;;;6.72;4.13;;;;;;;20.34;100.00;98367.31;5063984;28;20029;-68
2022/08/05 07:53:28;;;;;;;10.23;4.45;;;;;;;20.39;100.00;98367.88;5063900;28;20370;-68
2022/08/05 07:55:53;;;;;;;8.95;5.40;;;;;;;20.51;100.00;98367.13;5064017;28;20092;-68
2022/08/05 07:58:18;;;;;;;6.82;4.07;;;;;;;20.56;100.00;98348.09;5063839;28;20055;-68
2022/08/05 08:00:44;;;;;;;5.47;3.80;;;;;;;20.66;100.00;98355.44;5063345;28;20105;-68
2022/08/05 08:03:11;;;;;;;9.18;4.43;;;;;;;20.91;100.00;98347.53;5063985;28;20032;-68
2022/08/05 08:05:38;;;;;;;8.23;4.60;;;;;;;21.25;100.00;98341.72;5063806;28;20052;-68
2022/08/05 08:08:03;;;;;;;6.70;4.28;;;;;;;21.77;100.00;98354.28;5064048;28;20025;-68
2022/08/05 08:10:29;;;;;;;6.97;3.72;;;;;;;22.40;96.57;98344.44;5063800;28;20202;-68
2022/08/05 08:12:54;;;;;;;6.65;3.50;;;;;;;22.70;92.63;98352.97;5063717;28;20051;-68
2022/08/05 08:15:20;;;;;;;5.00;3.85;;;;;;;22.99;92.84;98371.38;5063672;28;20025;-68
2022/08/05 08:17:46;;;;;;;9.30;3.17;;;;;;;23.44;90.04;98377.84;5063697;28;20041;-68
2022/08/05 08:20:12;;;;;;;6.28;3.50;;;;;;;25.46;86.56;98391.31;5063723;28;20021;-68
2022/08/05 08:22:37;;;;;;;4.90;3.03;;;;;;;26.75;79.30;98405.22;5063626;28;20032;-68
2022/08/05 08:25:04;;;;;;;7.88;2.97;;;;;;;26.82;76.56;98405.50;5063624;28;20131;-68
2022/08/05 08:27:30;;;;;;;5.55;2.80;;;;;;;26.22;78.46;98400.03;5063436;28;20028;-68
2022/08/05 08:29:55;;;;;;;7.82;2.83;;;;;;;26.54;76.93;98403.53;5063603;28;20096;-68
2022/08/05 08:32:21;;;;;;;4.57;3.10;;;;;;;26.67;77.50;98406.91;5063800;28;20016;-68
2022/08/05 08:34:46;;;;;;;7.53;3.33;;;;;;;27.76;74.54;98409.47;5063409;28;20021;-68
2022/08/05 08:37:12;;;;;;;7.28;3.03;;;;;;;27.73;71.92;98415.19;5063590;28;20024;-68
2022/08/05 08:39:37;;;;;;;6.57;2.85;;;;;;;26.91;74.11;98416.38;5063485;28;20324;-68
2022/08/05 08:42:03;;;;;;;6.22;2.75;;;;;;;27.12;73.62;98425.25;5063513;28;20044;-68
2022/08/05 08:44:30;;;;;;;8.68;3.30;;;;;;;27.39;74.06;98424.66;5063395;28;20043;-68
2022/08/05 08:46:56;;;;;;;5.32;3.40;;;;;;;27.02;75.32;98413.56;5063437;28;20029;-68
2022/08/05 08:49:23;;;;;;;5.13;2.92;;;;;;;27.88;71.95;98402.13;5063413;28;20029;-68
2022/08/05 08:52:04;;;;;;;6.28;3.00;;;;;;;29.30;67.78;98410.88;5063386;28;20376;-68
2022/08/05 08:54:30;;;;;;;9.02;2.88;;;;;;;29.73;66.23;98408.34;5063295;28;20079;-68
2022/08/05 08:56:57;;;;;;;4.50;2.80;;;;;;;29.94;66.90;98395.31;5063261;28;20021;-68
2022/08/05 08:59:23;;;;;;;5.85;2.38;;;;;;;29.72;65.49;98393.06;5063319;28;20031;-68
2022/08/05 09:01:50;;;;;;;4.18;2.40;;;;;;;30.30;60.68;98397.00;5063234;28;20028;-68
2022/08/05 09:04:15;;;;;;;5.60;2.83;;;;;;;30.27;61.77;98400.03;5063324;28;20029;-68
2022/08/05 09:06:40;;;;;;;5.72;2.70;;;;;;;30.13;60.66;98395.13;5063237;28;20036;-68
2022/08/05 09:09:06;;;;;;;5.20;2.40;;;;;;;29.82;61.48;98380.25;5063485;28;20028;-68
2022/08/05 09:11:32;;;;;;;3.15;2.45;;;;;;;30.34;58.47;98390.25;5063153;28;20317;-68
2022/08/05 09:13:59;;;;;;;5.28;2.88;;;;;;;30.82;59.73;98398.75;5066279;28;20066;-68
2022/08/05 09:16:25;;;;;;;4.57;2.47;;;;;;;31.05;58.72;98391.72;5067008;28;20021;-68
2022/08/05 09:18:51;;;;;;;3.53;2.20;;;;;;;30.61;59.64;98395.53;5066776;28;20025;-68
2022/08/05 09:21:17;;;;;;;4.05;2.47;;;;;;;29.85;61.21;98388.97;5066927;28;20017;-68
2022/08/05 09:23:43;;;;;;;8.48;2.88;;;;;;;29.75;60.35;98390.03;5066569;28;20031;-68
2022/08/05 09:26:18;;;;;;;4.68;2.30;;;;;;;29.03;61.09;98408.97;5066586;28;20304;-68
2022/08/05 09:28:46;;;;;;;5.82;2.67;;;;;;;27.71;62.46;98405.50;5066357;28;20112;-68
2022/08/05 09:31:14;;;;;;;5.88;2.58;;;;;;;27.54;66.55;98420.56;5066797;28;20055;-68
2022/08/05 09:33:54;;;;;;;6.10;3.20;;;;;;;26.27;68.71;98403.22;5066366;28;20121;-68
2022/08/05 09:36:20;;;;;;;4.15;2.63;;;;;;;26.60;68.02;98411.94;5066353;28;20025;-68
2022/08/05 09:39:00;;;;;;;9.63;3.10;;;;;;;26.62;67.34;98419.94;5066578;28;20275;-68
2022/08/05 09:41:26;;;;;;;6.55;3.10;;;;;;;26.57;68.53;98432.94;5066260;28;20320;-68
2022/08/05 09:43:52;;;;;;;6.25;3.10;;;;;;;26.63;67.91;98454.03;5066288;28;20021;-68
2022/08/05 09:46:27;;;;;;;4.90;2.95;;;;;;;27.10;68.03;98453.41;5066256;28;20323;-68
2022/08/05 09:48:53;;;;;;;4.88;2.90;;;;;;;28.03;65.95;98465.63;5066405;28;20031;-68
2022/08/05 09:51:31;;;;;;;4.82;2.90;;;;;;;28.25;63.74;98455.34;5066101;28;20020;-68
2022/08/05 09:53:57;;;;;;;5.82;3.05;;;;;;;28.04;64.56;98424.03;5065949;28;20053;-68
2022/08/05 09:56:26;;;;;;;5.28;3.05;;;;;;;27.36;63.25;98372.72;5066089;28;20024;-68
2022/08/05 09:58:55;;;;;;;7.43;3.60;;;;;;;26.72;68.70;98381.19;5066002;28;20021;-68
2022/08/05 10:01:21;;;;;;;5.38;2.70;;;;;;;26.81;69.53;98414.63;5065855;28;20021;-68
2022/08/05 10:03:58;;;;;;;6.57;3.15;;;;;;;27.33;68.20;98443.28;5065870;28;20088;-68
2022/08/05 10:06:26;;;;;;;5.03;3.30;;;;;;;27.13;69.11;98458.53;5065856;28;20091;-68
2022/08/05 10:08:52;;;;;;;6.53;3.15;;;;;;;27.04;71.85;98443.16;5065819;28;20080;-68
2022/08/05 10:11:17;;;;;;;4.22;3.38;;;;;;;26.80;71.59;98434.53;5065726;28;20059;-68
2022/08/05 10:13:43;;;;;;;7.00;3.55;;;;;;;26.57;71.56;98438.31;5065630;28;20221;-68
2022/08/05 10:16:33;;;;;;;4.07;2.97;;;;;;;27.00;71.10;98437.19;5065639;28;20033;-68
2022/08/05 10:19:00;;;;;;;6.78;3.28;;;;;;;27.39;70.75;98442.75;5065564;28;20029;-68
2022/08/05 10:21:26;;;;;;;6.80;3.28;;;;;;;27.42;67.70;98443.28;5065544;28;20020;-68
2022/08/05 10:23:52;;;;;;;5.35;3.65;;;;;;;27.37;67.72;98445.56;5064909;28;20063;-68
2022/08/05 10:26:18;;;;;;;5.65;3.60;;;;;;;27.27;67.37;98444.66;5065529;28;20112;-68
2022/08/05 10:28:44;;;;;;;8.70;3.13;;;;;;;27.23;69.99;98459.44;5065340;28;20344;-68
2022/08/05 10:31:12;;;;;;;5.07;3.47;;;;;;;26.56;68.29;98444.72;5065370;28;20088;-68
2022/08/05 10:33:38;;;;;;;9.55;3.63;;;;;;;26.39;71.53;98450.72;5065221;28;20051;-68
2022/08/05 10:36:04;;;;;;;8.50;3.80;;;;;;;26.73;69.32;98449.53;5065225;28;20225;-68
2022/08/05 10:38:31;;;;;;;8.73;4.75;;;;;;;26.73;69.16;98450.41;5065134;28;20028;-68
2022/08/05 10:41:16;;;;;;;7.43;3.95;;;;;;;26.95;68.15;98450.22;5065168;28;20036;-68
2022/08/05 10:43:48;;;;;;;6.25;3.75;;;;;;;27.44;67.17;98454.84;5065068;28;20071;-68
2022/08/05 10:46:17;;;;;;;7.40;3.50;;;;;;;27.43;64.28;98445.03;5065332;28;20194;-68
2022/08/05 10:48:45;;;;;;;7.72;3.67;;;;;;;27.49;66.39;98455.25;5065242;28;20321;-68
2022/08/05 10:51:16;;;;;;;6.45;3.33;;;;;;;27.11;66.46;98449.69;5065193;28;20217;-68
2022/08/05 10:53:42;;;;;;;8.57;4.40;;;;;;;27.04;65.99;98445.84;5065120;28;20020;-68
2022/08/05 10:56:09;;;;;;;9.90;3.90;;;;;;;27.42;65.13;98464.94;5064847;28;20028;-68
2022/08/05 10:58:35;;;;;;;8.38;3.88;;;;;;;27.60;65.37;98463.28;5064805;28;20321;-68
2022/08/05 11:01:05;;;;;;;7.10;3.63;;;;;;;27.55;64.70;98470.94;5057593;28;20029;-68
2022/08/05 11:03:31;;;;;;;4.82;3.65;;;;;;;27.89;65.66;98477.72;5045913;28;20096;-68
2022/08/05 11:06:05;;;;;;;5.28;3.60;;;;;;;28.31;63.06;98481.03;5043722;28;20029;-68
2022/08/05 11:08:30;;;;;;;5.63;3.17;;;;;;;28.30;62.04;98480.16;5048298;28;20035;-68
2022/08/05 11:11:32;;;;;;;6.63;4.05;;;;;;;27.76;63.35;98462.72;5063060;28;20055;-68
2022/08/05 11:13:59;;;;;;;5.18;3.55;;;;;;;28.03;64.71;98471.88;5062960;28;20032;-68
2022/08/05 11:16:25;;;;;;;7.03;3.05;;;;;;;28.18;61.57;98467.75;5043916;28;20029;-68
2022/08/05 11:19:30;;;;;;;7.07;3.30;;;;;;;28.39;60.67;98471.19;5058336;28;20373;-68
2022/08/05 11:22:34;;;;;;;6.88;3.50;;;;;;;28.72;60.08;98481.53;5048250;28;20200;-68
2022/08/05 11:25:37;;;;;;;5.75;3.38;;;;;;;28.02;62.04;98480.13;5058177;28;20020;-68
2022/08/05 11:28:08;;;;;;;6.75;3.25;;;;;;;28.43;61.86;98478.00;5057443;28;20051;-68
2022/08/05 11:30:56;;;;;;;6.75;3.42;;;;;;;28.47;60.08;98487.56;5062516;28;20328;-68
2022/08/05 11:33:31;;;;;;;6.93;3.78;;;;;;;28.02;62.93;98469.31;5047235;28;20060;-68
2022/08/05 11:35:59;;;;;;;8.38;3.90;;;;;;;27.82;62.09;98479.25;5055340;28;20029;-68
2022/08/05 11:38:43;;;;;;;6.50;3.83;;;;;;;28.06;63.00;98493.25;5061082;28;20080;-68